sensor_id;sensor_type;location;lat;lon;timestamp;P1;durP1;ratioP1;P2;durP2;ratioP2
16416;SDS011;8317;52.186;5.688;2022-11-15T00:00:44;49.53;;;23.40;;
16416;SDS011;8317;52.186;5.688;2022-11-15T00:03:12;51.30;;;24.02;;
16416;SDS011;8317;52.186;5.688;2022-11-15T00:05:39;50.42;;;22.27;;
16416;SDS011;8317;52.186;5.688;2022-11-15T00:08:06;49.03;;;22.25;;
16416;SDS011;8317;52.186;5.688;2022-11-15T00:10:33;50.42;;;23.08;;
16416;SDS011;8317;52.186;5.688;2022-11-15T00:13:03;48.20;;;24.15;;
16416;SDS011;8317;52.186;5.688;2022-11-15T00:15:31;49.30;;;23.27;;
16416;SDS011;8317;52.186;5.688;2022-11-15T00:18:01;48.80;;;22.65;;
16416;SDS011;8317;52.186;5.688;2022-11-15T00:20:28;49.58;;;22.83;;
16416;SDS011;8317;52.186;5.688;2022-11-15T00:22:55;50.65;;;23.75;;
16416;SDS011;8317;52.186;5.688;2022-11-15T00:25:22;52.75;;;25.23;;
16416;SDS011;8317;52.186;5.688;2022-11-15T00:27:49;52.35;;;25.92;;
16416;SDS011;8317;52.186;5.688;2022-11-15T00:30:16;57.00;;;24.20;;
16416;SDS011;8317;52.186;5.688;2022-11-15T00:32:43;59.50;;;25.27;;
16416;SDS011;8317;52.186;5.688;2022-11-15T00:35:12;54.28;;;24.55;;
16416;SDS011;8317;52.186;5.688;2022-11-15T00:37:38;69.30;;;25.75;;
16416;SDS011;8317;52.186;5.688;2022-11-15T00:40:06;68.27;;;27.00;;
16416;SDS011;8317;52.186;5.688;2022-11-15T00:42:34;75.80;;;28.63;;
16416;SDS011;8317;52.186;5.688;2022-11-15T00:45:00;72.05;;;26.88;;
16416;SDS011;8317;52.186;5.688;2022-11-15T00:47:27;66.40;;;27.35;;
16416;SDS011;8317;52.186;5.688;2022-11-15T00:49:54;66.80;;;27.00;;
16416;SDS011;8317;52.186;5.688;2022-11-15T00:52:22;72.70;;;27.92;;
16416;SDS011;8317;52.186;5.688;2022-11-15T00:54:49;72.15;;;28.42;;
16416;SDS011;8317;52.186;5.688;2022-11-15T00:57:16;72.45;;;27.35;;
16416;SDS011;8317;52.186;5.688;2022-11-15T00:59:43;79.07;;;28.30;;
16416;SDS011;8317;52.186;5.688;2022-11-15T01:02:10;74.38;;;28.02;;
16416;SDS011;8317;52.186;5.688;2022-11-15T01:04:36;70.50;;;27.83;;
16416;SDS011;8317;52.186;5.688;2022-11-15T01:07:04;67.13;;;27.98;;
16416;SDS011;8317;52.186;5.688;2022-11-15T01:09:32;68.93;;;27.35;;
16416;SDS011;8317;52.186;5.688;2022-11-15T01:11:59;75.15;;;28.48;;
16416;SDS011;8317;52.186;5.688;2022-11-15T01:14:26;75.78;;;29.60;;
16416;SDS011;8317;52.186;5.688;2022-11-15T01:16:53;77.05;;;29.20;;
16416;SDS011;8317;52.186;5.688;2022-11-15T01:19:19;80.63;;;29.98;;
16416;SDS011;8317;52.186;5.688;2022-11-15T01:21:48;73.28;;;30.80;;
16416;SDS011;8317;52.186;5.688;2022-11-15T01:24:15;74.30;;;28.65;;
16416;SDS011;8317;52.186;5.688;2022-11-15T01:26:43;80.68;;;29.58;;
16416;SDS011;8317;52.186;5.688;2022-11-15T01:29:10;66.90;;;27.98;;
16416;SDS011;8317;52.186;5.688;2022-11-15T01:31:37;68.80;;;28.13;;
16416;SDS011;8317;52.186;5.688;2022-11-15T01:34:04;68.45;;;29.45;;
16416;SDS011;8317;52.186;5.688;2022-11-15T01:36:31;67.88;;;29.50;;
16416;SDS011;8317;52.186;5.688;2022-11-15T01:38:58;69.82;;;30.35;;
16416;SDS011;8317;52.186;5.688;2022-11-15T01:41:26;66.07;;;29.35;;
16416;SDS011;8317;52.186;5.688;2022-11-15T01:43:57;71.10;;;28.70;;
16416;SDS011;8317;52.186;5.688;2022-11-15T01:46:44;68.82;;;29.52;;
16416;SDS011;8317;52.186;5.688;2022-11-15T01:49:14;71.57;;;28.73;;
16416;SDS011;8317;52.186;5.688;2022-11-15T01:51:43;70.15;;;29.15;;
16416;SDS011;8317;52.186;5.688;2022-11-15T01:54:28;74.93;;;30.35;;
16416;SDS011;8317;52.186;5.688;2022-11-15T01:56:56;66.43;;;28.35;;
16416;SDS011;8317;52.186;5.688;2022-11-15T01:59:26;70.32;;;29.85;;
16416;SDS011;8317;52.186;5.688;2022-11-15T02:01:53;66.85;;;28.70;;
16416;SDS011;8317;52.186;5.688;2022-11-15T02:04:20;69.57;;;28.20;;
16416;SDS011;8317;52.186;5.688;2022-11-15T02:06:51;74.72;;;30.40;;
16416;SDS011;8317;52.186;5.688;2022-11-15T02:09:18;71.05;;;29.63;;
16416;SDS011;8317;52.186;5.688;2022-11-15T02:11:46;69.18;;;29.17;;
16416;SDS011;8317;52.186;5.688;2022-11-15T02:14:15;65.78;;;29.90;;
16416;SDS011;8317;52.186;5.688;2022-11-15T02:16:47;60.67;;;28.08;;
16416;SDS011;8317;52.186;5.688;2022-11-15T02:19:22;70.15;;;29.65;;
16416;SDS011;8317;52.186;5.688;2022-11-15T02:22:21;70.05;;;29.80;;
16416;SDS011;8317;52.186;5.688;2022-11-15T02:25:01;65.57;;;28.70;;
16416;SDS011;8317;52.186;5.688;2022-11-15T02:30:44;66.78;;;30.60;;
16416;SDS011;8317;52.186;5.688;2022-11-15T02:33:16;72.70;;;30.67;;
16416;SDS011;8317;52.186;5.688;2022-11-15T02:35:52;70.75;;;31.67;;
16416;SDS011;8317;52.186;5.688;2022-11-15T02:38:31;67.30;;;30.52;;
16416;SDS011;8317;52.186;5.688;2022-11-15T02:41:06;69.80;;;32.25;;
16416;SDS011;8317;52.186;5.688;2022-11-15T02:43:37;69.05;;;32.25;;
16416;SDS011;8317;52.186;5.688;2022-11-15T02:46:23;70.80;;;32.85;;
16416;SDS011;8317;52.186;5.688;2022-11-15T02:49:08;64.22;;;31.48;;
16416;SDS011;8317;52.186;5.688;2022-11-15T02:51:37;63.28;;;30.73;;
16416;SDS011;8317;52.186;5.688;2022-11-15T02:54:05;71.15;;;32.22;;
16416;SDS011;8317;52.186;5.688;2022-11-15T02:56:32;63.97;;;32.05;;
16416;SDS011;8317;52.186;5.688;2022-11-15T02:59:07;60.45;;;29.75;;
16416;SDS011;8317;52.186;5.688;2022-11-15T03:01:46;63.88;;;32.10;;
16416;SDS011;8317;52.186;5.688;2022-11-15T03:04:23;61.75;;;31.65;;
16416;SDS011;8317;52.186;5.688;2022-11-15T03:07:02;72.18;;;30.25;;
16416;SDS011;8317;52.186;5.688;2022-11-15T03:09:35;71.35;;;31.10;;
16416;SDS011;8317;52.186;5.688;2022-11-15T03:12:10;63.88;;;32.08;;
16416;SDS011;8317;52.186;5.688;2022-11-15T03:14:42;60.10;;;31.30;;
16416;SDS011;8317;52.186;5.688;2022-11-15T03:17:22;65.05;;;32.63;;
16416;SDS011;8317;52.186;5.688;2022-11-15T03:19:53;60.25;;;31.15;;
16416;SDS011;8317;52.186;5.688;2022-11-15T03:22:23;69.90;;;32.28;;
16416;SDS011;8317;52.186;5.688;2022-11-15T03:24:53;65.72;;;32.50;;
16416;SDS011;8317;52.186;5.688;2022-11-15T03:27:23;64.72;;;31.77;;
16416;SDS011;8317;52.186;5.688;2022-11-15T03:29:55;68.47;;;32.40;;
16416;SDS011;8317;52.186;5.688;2022-11-15T03:32:28;61.50;;;31.42;;
16416;SDS011;8317;52.186;5.688;2022-11-15T03:34:57;58.80;;;31.35;;
16416;SDS011;8317;52.186;5.688;2022-11-15T03:37:27;59.13;;;30.73;;
16416;SDS011;8317;52.186;5.688;2022-11-15T03:39:58;59.70;;;30.98;;
16416;SDS011;8317;52.186;5.688;2022-11-15T03:42:27;59.78;;;31.27;;
16416;SDS011;8317;52.186;5.688;2022-11-15T03:44:58;66.88;;;30.92;;
16416;SDS011;8317;52.186;5.688;2022-11-15T03:47:31;63.97;;;30.55;;
16416;SDS011;8317;52.186;5.688;2022-11-15T03:50:01;66.70;;;32.53;;
16416;SDS011;8317;52.186;5.688;2022-11-15T03:52:33;65.43;;;34.58;;
16416;SDS011;8317;52.186;5.688;2022-11-15T03:55:01;56.38;;;31.17;;
16416;SDS011;8317;52.186;5.688;2022-11-15T03:57:30;54.55;;;29.88;;
16416;SDS011;8317;52.186;5.688;2022-11-15T03:59:57;61.95;;;32.03;;
16416;SDS011;8317;52.186;5.688;2022-11-15T04:02:24;53.47;;;29.92;;
16416;SDS011;8317;52.186;5.688;2022-11-15T04:04:52;63.33;;;32.10;;
16416;SDS011;8317;52.186;5.688;2022-11-15T04:07:19;56.53;;;30.58;;
16416;SDS011;8317;52.186;5.688;2022-11-15T04:09:46;59.88;;;30.67;;
16416;SDS011;8317;52.186;5.688;2022-11-15T04:12:28;69.75;;;32.35;;
16416;SDS011;8317;52.186;5.688;2022-11-15T04:14:58;65.93;;;33.13;;
16416;SDS011;8317;52.186;5.688;2022-11-15T04:17:36;71.57;;;32.85;;
16416;SDS011;8317;52.186;5.688;2022-11-15T04:20:07;65.05;;;30.92;;
16416;SDS011;8317;52.186;5.688;2022-11-15T04:22:53;60.95;;;31.15;;
16416;SDS011;8317;52.186;5.688;2022-11-15T04:25:38;62.03;;;31.33;;
16416;SDS011;8317;52.186;5.688;2022-11-15T04:28:07;64.13;;;32.33;;
16416;SDS011;8317;52.186;5.688;2022-11-15T04:30:34;67.55;;;31.77;;
16416;SDS011;8317;52.186;5.688;2022-11-15T04:33:01;61.97;;;32.42;;
16416;SDS011;8317;52.186;5.688;2022-11-15T04:35:29;67.95;;;33.00;;
16416;SDS011;8317;52.186;5.688;2022-11-15T04:37:57;56.25;;;31.60;;
16416;SDS011;8317;52.186;5.688;2022-11-15T04:40:23;58.75;;;30.08;;
16416;SDS011;8317;52.186;5.688;2022-11-15T04:42:50;68.22;;;32.20;;
16416;SDS011;8317;52.186;5.688;2022-11-15T04:45:17;63.80;;;33.17;;
16416;SDS011;8317;52.186;5.688;2022-11-15T04:47:43;51.90;;;30.92;;
16416;SDS011;8317;52.186;5.688;2022-11-15T04:50:11;63.83;;;32.17;;
16416;SDS011;8317;52.186;5.688;2022-11-15T04:52:40;64.70;;;33.97;;
16416;SDS011;8317;52.186;5.688;2022-11-15T04:55:08;59.92;;;32.08;;
16416;SDS011;8317;52.186;5.688;2022-11-15T04:57:35;56.40;;;30.73;;
16416;SDS011;8317;52.186;5.688;2022-11-15T05:00:03;60.55;;;31.23;;
16416;SDS011;8317;52.186;5.688;2022-11-15T05:02:31;58.30;;;30.70;;
16416;SDS011;8317;52.186;5.688;2022-11-15T05:05:12;59.45;;;30.88;;
16416;SDS011;8317;52.186;5.688;2022-11-15T05:07:38;58.00;;;29.65;;
16416;SDS011;8317;52.186;5.688;2022-11-15T05:10:07;58.60;;;30.48;;
16416;SDS011;8317;52.186;5.688;2022-11-15T05:12:34;56.33;;;30.60;;
16416;SDS011;8317;52.186;5.688;2022-11-15T05:15:02;49.15;;;28.85;;
16416;SDS011;8317;52.186;5.688;2022-11-15T05:17:29;52.15;;;30.60;;
16416;SDS011;8317;52.186;5.688;2022-11-15T05:19:56;47.15;;;29.80;;
16416;SDS011;8317;52.186;5.688;2022-11-15T05:22:23;59.05;;;30.27;;
16416;SDS011;8317;52.186;5.688;2022-11-15T05:24:51;56.35;;;30.50;;
16416;SDS011;8317;52.186;5.688;2022-11-15T05:27:18;54.55;;;29.58;;
16416;SDS011;8317;52.186;5.688;2022-11-15T05:29:45;53.60;;;28.42;;
16416;SDS011;8317;52.186;5.688;2022-11-15T05:32:12;46.42;;;27.33;;
16416;SDS011;8317;52.186;5.688;2022-11-15T05:34:39;49.50;;;28.30;;
16416;SDS011;8317;52.186;5.688;2022-11-15T05:37:06;47.83;;;27.75;;
16416;SDS011;8317;52.186;5.688;2022-11-15T05:39:33;45.72;;;28.35;;
16416;SDS011;8317;52.186;5.688;2022-11-15T05:42:02;51.70;;;28.65;;
16416;SDS011;8317;52.186;5.688;2022-11-15T05:44:33;52.40;;;28.17;;
16416;SDS011;8317;52.186;5.688;2022-11-15T05:47:02;46.33;;;27.77;;
16416;SDS011;8317;52.186;5.688;2022-11-15T05:49:31;47.13;;;27.17;;
16416;SDS011;8317;52.186;5.688;2022-11-15T05:52:00;46.33;;;27.15;;
16416;SDS011;8317;52.186;5.688;2022-11-15T05:54:29;51.75;;;28.48;;
16416;SDS011;8317;52.186;5.688;2022-11-15T05:56:58;52.47;;;27.90;;
16416;SDS011;8317;52.186;5.688;2022-11-15T05:59:26;50.45;;;28.25;;
16416;SDS011;8317;52.186;5.688;2022-11-15T06:01:55;53.80;;;28.27;;
16416;SDS011;8317;52.186;5.688;2022-11-15T06:04:22;45.58;;;28.38;;
16416;SDS011;8317;52.186;5.688;2022-11-15T06:06:49;49.85;;;27.55;;
16416;SDS011;8317;52.186;5.688;2022-11-15T06:09:16;49.60;;;27.40;;
16416;SDS011;8317;52.186;5.688;2022-11-15T06:11:43;49.85;;;28.48;;
16416;SDS011;8317;52.186;5.688;2022-11-15T06:14:10;45.08;;;27.35;;
16416;SDS011;8317;52.186;5.688;2022-11-15T06:16:38;51.97;;;28.33;;
16416;SDS011;8317;52.186;5.688;2022-11-15T06:19:05;51.03;;;27.75;;
16416;SDS011;8317;52.186;5.688;2022-11-15T06:21:32;51.47;;;28.23;;
16416;SDS011;8317;52.186;5.688;2022-11-15T06:23:59;48.22;;;27.45;;
16416;SDS011;8317;52.186;5.688;2022-11-15T06:26:26;49.45;;;28.05;;
16416;SDS011;8317;52.186;5.688;2022-11-15T06:28:53;50.90;;;28.35;;
16416;SDS011;8317;52.186;5.688;2022-11-15T06:31:20;51.25;;;29.02;;
16416;SDS011;8317;52.186;5.688;2022-11-15T06:33:48;54.03;;;28.55;;
16416;SDS011;8317;52.186;5.688;2022-11-15T06:36:15;48.03;;;28.55;;
16416;SDS011;8317;52.186;5.688;2022-11-15T06:38:42;48.78;;;28.65;;
16416;SDS011;8317;52.186;5.688;2022-11-15T06:41:10;56.55;;;29.25;;
16416;SDS011;8317;52.186;5.688;2022-11-15T06:43:37;54.35;;;28.48;;
16416;SDS011;8317;52.186;5.688;2022-11-15T06:46:05;54.90;;;29.70;;
16416;SDS011;8317;52.186;5.688;2022-11-15T06:48:33;57.42;;;29.05;;
16416;SDS011;8317;52.186;5.688;2022-11-15T06:51:02;50.58;;;27.98;;
16416;SDS011;8317;52.186;5.688;2022-11-15T06:53:30;48.78;;;28.15;;
16416;SDS011;8317;52.186;5.688;2022-11-15T06:55:58;52.42;;;27.25;;
16416;SDS011;8317;52.186;5.688;2022-11-15T06:58:26;50.58;;;28.55;;
16416;SDS011;8317;52.186;5.688;2022-11-15T07:00:52;49.95;;;27.13;;
16416;SDS011;8317;52.186;5.688;2022-11-15T07:03:20;57.28;;;29.67;;
16416;SDS011;8317;52.186;5.688;2022-11-15T07:05:50;43.03;;;27.02;;
16416;SDS011;8317;52.186;5.688;2022-11-15T07:08:20;47.45;;;27.95;;
16416;SDS011;8317;52.186;5.688;2022-11-15T07:10:47;53.63;;;29.80;;
16416;SDS011;8317;52.186;5.688;2022-11-15T07:13:14;52.42;;;29.23;;
16416;SDS011;8317;52.186;5.688;2022-11-15T07:15:41;52.92;;;28.25;;
16416;SDS011;8317;52.186;5.688;2022-11-15T07:18:08;54.78;;;30.30;;
16416;SDS011;8317;52.186;5.688;2022-11-15T07:20:35;57.47;;;30.33;;
16416;SDS011;8317;52.186;5.688;2022-11-15T07:23:02;51.25;;;29.42;;
16416;SDS011;8317;52.186;5.688;2022-11-15T07:25:31;49.22;;;28.10;;
16416;SDS011;8317;52.186;5.688;2022-11-15T07:27:58;48.65;;;28.75;;
16416;SDS011;8317;52.186;5.688;2022-11-15T07:30:26;50.28;;;28.98;;
16416;SDS011;8317;52.186;5.688;2022-11-15T07:32:53;47.25;;;27.35;;
16416;SDS011;8317;52.186;5.688;2022-11-15T07:35:20;50.28;;;28.70;;
16416;SDS011;8317;52.186;5.688;2022-11-15T07:37:52;50.45;;;27.00;;
16416;SDS011;8317;52.186;5.688;2022-11-15T07:40:21;48.45;;;27.85;;
16416;SDS011;8317;52.186;5.688;2022-11-15T07:42:49;46.25;;;26.55;;
16416;SDS011;8317;52.186;5.688;2022-11-15T07:45:19;50.67;;;28.15;;
16416;SDS011;8317;52.186;5.688;2022-11-15T07:47:46;46.08;;;27.20;;
16416;SDS011;8317;52.186;5.688;2022-11-15T07:50:13;45.67;;;27.92;;
16416;SDS011;8317;52.186;5.688;2022-11-15T07:52:40;51.92;;;27.13;;
16416;SDS011;8317;52.186;5.688;2022-11-15T07:55:07;49.75;;;27.17;;
16416;SDS011;8317;52.186;5.688;2022-11-15T07:57:34;49.25;;;27.33;;
16416;SDS011;8317;52.186;5.688;2022-11-15T08:00:03;49.75;;;27.92;;
16416;SDS011;8317;52.186;5.688;2022-11-15T08:02:31;44.20;;;26.92;;
16416;SDS011;8317;52.186;5.688;2022-11-15T08:04:58;47.05;;;27.13;;
16416;SDS011;8317;52.186;5.688;2022-11-15T08:07:26;41.85;;;26.02;;
16416;SDS011;8317;52.186;5.688;2022-11-15T08:09:54;46.30;;;26.55;;
16416;SDS011;8317;52.186;5.688;2022-11-15T08:12:21;44.60;;;26.10;;
16416;SDS011;8317;52.186;5.688;2022-11-15T08:14:48;48.78;;;27.25;;
16416;SDS011;8317;52.186;5.688;2022-11-15T08:17:17;44.80;;;26.10;;
16416;SDS011;8317;52.186;5.688;2022-11-15T08:19:44;45.30;;;26.58;;
16416;SDS011;8317;52.186;5.688;2022-11-15T08:22:10;40.55;;;25.95;;
16416;SDS011;8317;52.186;5.688;2022-11-15T08:24:37;42.20;;;26.73;;
16416;SDS011;8317;52.186;5.688;2022-11-15T08:27:04;50.38;;;25.98;;
16416;SDS011;8317;52.186;5.688;2022-11-15T08:29:40;41.75;;;24.77;;
16416;SDS011;8317;52.186;5.688;2022-11-15T08:32:07;46.63;;;24.95;;
16416;SDS011;8317;52.186;5.688;2022-11-15T08:34:36;42.17;;;24.08;;
16416;SDS011;8317;52.186;5.688;2022-11-15T08:37:03;36.72;;;23.23;;
16416;SDS011;8317;52.186;5.688;2022-11-15T08:39:31;36.60;;;23.58;;
16416;SDS011;8317;52.186;5.688;2022-11-15T08:41:58;36.03;;;22.67;;
16416;SDS011;8317;52.186;5.688;2022-11-15T08:44:25;36.00;;;22.45;;
16416;SDS011;8317;52.186;5.688;2022-11-15T08:46:52;35.15;;;22.58;;
16416;SDS011;8317;52.186;5.688;2022-11-15T08:49:19;39.05;;;22.38;;
16416;SDS011;8317;52.186;5.688;2022-11-15T08:51:47;39.28;;;22.65;;
16416;SDS011;8317;52.186;5.688;2022-11-15T08:54:14;33.58;;;21.98;;
16416;SDS011;8317;52.186;5.688;2022-11-15T08:56:41;33.60;;;21.75;;
16416;SDS011;8317;52.186;5.688;2022-11-15T08:59:07;35.97;;;20.55;;
16416;SDS011;8317;52.186;5.688;2022-11-15T09:01:34;39.00;;;21.40;;
16416;SDS011;8317;52.186;5.688;2022-11-15T09:04:01;30.85;;;20.25;;
16416;SDS011;8317;52.186;5.688;2022-11-15T09:06:29;30.30;;;20.65;;
16416;SDS011;8317;52.186;5.688;2022-11-15T09:08:57;34.95;;;21.67;;
16416;SDS011;8317;52.186;5.688;2022-11-15T09:11:26;37.05;;;22.08;;
16416;SDS011;8317;52.186;5.688;2022-11-15T09:13:53;32.90;;;21.45;;
16416;SDS011;8317;52.186;5.688;2022-11-15T09:16:20;35.72;;;21.20;;
16416;SDS011;8317;52.186;5.688;2022-11-15T09:18:47;33.83;;;20.70;;
16416;SDS011;8317;52.186;5.688;2022-11-15T09:21:14;33.92;;;19.63;;
16416;SDS011;8317;52.186;5.688;2022-11-15T09:23:41;33.60;;;19.85;;
16416;SDS011;8317;52.186;5.688;2022-11-15T09:26:09;34.13;;;20.27;;
16416;SDS011;8317;52.186;5.688;2022-11-15T09:28:36;36.83;;;20.85;;
16416;SDS011;8317;52.186;5.688;2022-11-15T09:31:06;32.83;;;19.92;;
16416;SDS011;8317;52.186;5.688;2022-11-15T09:33:33;27.77;;;19.85;;
16416;SDS011;8317;52.186;5.688;2022-11-15T09:36:01;24.00;;;17.40;;
16416;SDS011;8317;52.186;5.688;2022-11-15T09:38:29;25.58;;;16.08;;
16416;SDS011;8317;52.186;5.688;2022-11-15T09:40:58;22.52;;;16.05;;
16416;SDS011;8317;52.186;5.688;2022-11-15T09:43:50;19.63;;;15.40;;
16416;SDS011;8317;52.186;5.688;2022-11-15T09:46:28;23.23;;;15.45;;
16416;SDS011;8317;52.186;5.688;2022-11-15T09:49:02;19.02;;;15.50;;
16416;SDS011;8317;52.186;5.688;2022-11-15T09:51:30;26.85;;;15.98;;
16416;SDS011;8317;52.186;5.688;2022-11-15T09:54:03;23.55;;;15.57;;
16416;SDS011;8317;52.186;5.688;2022-11-15T09:56:35;25.77;;;15.32;;
16416;SDS011;8317;52.186;5.688;2022-11-15T09:59:11;25.27;;;15.32;;
16416;SDS011;8317;52.186;5.688;2022-11-15T10:01:48;22.70;;;14.15;;
16416;SDS011;8317;52.186;5.688;2022-11-15T10:04:20;20.98;;;14.13;;
16416;SDS011;8317;52.186;5.688;2022-11-15T10:06:49;20.52;;;13.68;;
16416;SDS011;8317;52.186;5.688;2022-11-15T10:09:22;17.48;;;12.10;;
16416;SDS011;8317;52.186;5.688;2022-11-15T10:11:53;21.42;;;12.75;;
16416;SDS011;8317;52.186;5.688;2022-11-15T10:14:21;16.65;;;10.15;;
16416;SDS011;8317;52.186;5.688;2022-11-15T10:16:57;14.65;;;9.93;;
16416;SDS011;8317;52.186;5.688;2022-11-15T10:19:42;12.57;;;9.27;;
16416;SDS011;8317;52.186;5.688;2022-11-15T10:22:27;11.15;;;7.75;;
16416;SDS011;8317;52.186;5.688;2022-11-15T10:27:47;9.82;;;7.38;;
16416;SDS011;8317;52.186;5.688;2022-11-15T10:30:19;10.30;;;6.78;;
16416;SDS011;8317;52.186;5.688;2022-11-15T10:32:47;8.38;;;6.90;;
16416;SDS011;8317;52.186;5.688;2022-11-15T10:35:24;11.95;;;6.90;;
16416;SDS011;8317;52.186;5.688;2022-11-15T10:37:55;8.52;;;6.38;;
16416;SDS011;8317;52.186;5.688;2022-11-15T10:40:31;9.95;;;6.22;;
16416;SDS011;8317;52.186;5.688;2022-11-15T10:43:05;8.77;;;6.00;;
16416;SDS011;8317;52.186;5.688;2022-11-15T10:45:39;9.57;;;6.05;;
16416;SDS011;8317;52.186;5.688;2022-11-15T10:48:20;7.40;;;5.65;;
16416;SDS011;8317;52.186;5.688;2022-11-15T10:50:49;10.60;;;7.03;;
16416;SDS011;8317;52.186;5.688;2022-11-15T10:53:20;9.45;;;6.13;;
16416;SDS011;8317;52.186;5.688;2022-11-15T10:55:50;8.13;;;5.95;;
16416;SDS011;8317;52.186;5.688;2022-11-15T10:58:21;8.57;;;6.30;;
16416;SDS011;8317;52.186;5.688;2022-11-15T11:00:57;9.00;;;6.10;;
16416;SDS011;8317;52.186;5.688;2022-11-15T11:03:40;8.60;;;5.63;;
16416;SDS011;8317;52.186;5.688;2022-11-15T11:06:10;6.70;;;5.00;;
16416;SDS011;8317;52.186;5.688;2022-11-15T11:08:38;5.95;;;4.57;;
16416;SDS011;8317;52.186;5.688;2022-11-15T11:11:05;7.75;;;4.55;;
16416;SDS011;8317;52.186;5.688;2022-11-15T11:13:35;7.75;;;5.28;;
16416;SDS011;8317;52.186;5.688;2022-11-15T11:16:15;9.00;;;5.07;;
16416;SDS011;8317;52.186;5.688;2022-11-15T11:18:49;8.93;;;4.80;;
16416;SDS011;8317;52.186;5.688;2022-11-15T11:21:24;18.48;;;5.40;;
16416;SDS011;8317;52.186;5.688;2022-11-15T11:23:58;5.93;;;4.57;;
16416;SDS011;8317;52.186;5.688;2022-11-15T11:26:38;5.53;;;4.10;;
16416;SDS011;8317;52.186;5.688;2022-11-15T11:29:15;6.32;;;3.95;;
16416;SDS011;8317;52.186;5.688;2022-11-15T11:31:58;6.57;;;4.25;;
16416;SDS011;8317;52.186;5.688;2022-11-15T11:34:35;6.20;;;4.13;;
16416;SDS011;8317;52.186;5.688;2022-11-15T11:37:14;5.70;;;4.20;;
16416;SDS011;8317;52.186;5.688;2022-11-15T11:39:51;7.18;;;3.80;;
16416;SDS011;8317;52.186;5.688;2022-11-15T11:42:28;9.30;;;3.38;;
16416;SDS011;8317;52.186;5.688;2022-11-15T11:45:15;4.70;;;3.20;;
16416;SDS011;8317;52.186;5.688;2022-11-15T11:47:46;4.93;;;3.17;;
16416;SDS011;8317;52.186;5.688;2022-11-15T11:50:18;5.55;;;3.50;;
16416;SDS011;8317;52.186;5.688;2022-11-15T11:52:52;7.18;;;3.00;;
16416;SDS011;8317;52.186;5.688;2022-11-15T11:55:24;6.88;;;2.47;;
16416;SDS011;8317;52.186;5.688;2022-11-15T11:58:00;2.65;;;2.28;;
16416;SDS011;8317;52.186;5.688;2022-11-15T12:00:33;6.00;;;2.65;;
16416;SDS011;8317;52.186;5.688;2022-11-15T12:03:05;5.10;;;2.47;;
16416;SDS011;8317;52.186;5.688;2022-11-15T12:05:38;4.05;;;2.75;;
16416;SDS011;8317;52.186;5.688;2022-11-15T12:08:15;6.07;;;2.55;;
16416;SDS011;8317;52.186;5.688;2022-11-15T12:10:59;5.75;;;2.50;;
16416;SDS011;8317;52.186;5.688;2022-11-15T12:13:33;5.80;;;2.90;;
16416;SDS011;8317;52.186;5.688;2022-11-15T12:16:05;3.97;;;2.63;;
16416;SDS011;8317;52.186;5.688;2022-11-15T12:18:40;6.95;;;2.45;;
16416;SDS011;8317;52.186;5.688;2022-11-15T12:21:15;4.10;;;2.28;;
16416;SDS011;8317;52.186;5.688;2022-11-15T12:23:48;2.40;;;2.17;;
16416;SDS011;8317;52.186;5.688;2022-11-15T12:26:18;2.65;;;2.25;;
16416;SDS011;8317;52.186;5.688;2022-11-15T12:28:50;6.90;;;2.75;;
16416;SDS011;8317;52.186;5.688;2022-11-15T12:31:24;3.45;;;2.50;;
16416;SDS011;8317;52.186;5.688;2022-11-15T12:33:56;8.20;;;2.28;;
16416;SDS011;8317;52.186;5.688;2022-11-15T12:36:35;5.28;;;2.88;;
16416;SDS011;8317;52.186;5.688;2022-11-15T12:39:04;4.60;;;2.35;;
16416;SDS011;8317;52.186;5.688;2022-11-15T12:41:32;4.10;;;2.42;;
16416;SDS011;8317;52.186;5.688;2022-11-15T12:44:00;4.95;;;2.00;;
16416;SDS011;8317;52.186;5.688;2022-11-15T12:49:42;3.10;;;1.80;;
16416;SDS011;8317;52.186;5.688;2022-11-15T12:52:11;6.18;;;2.38;;
16416;SDS011;8317;52.186;5.688;2022-11-15T12:57:50;6.28;;;2.30;;
16416;SDS011;8317;52.186;5.688;2022-11-15T13:03:17;5.55;;;2.10;;
16416;SDS011;8317;52.186;5.688;2022-11-15T13:08:36;4.63;;;1.90;;
16416;SDS011;8317;52.186;5.688;2022-11-15T13:20:07;9.75;;;2.35;;
16416;SDS011;8317;52.186;5.688;2022-11-15T13:22:44;3.45;;;1.70;;
16416;SDS011;8317;52.186;5.688;2022-11-15T13:28:18;6.97;;;2.08;;
16416;SDS011;8317;52.186;5.688;2022-11-15T13:30:49;3.05;;;1.98;;
16416;SDS011;8317;52.186;5.688;2022-11-15T13:33:19;2.83;;;1.63;;
16416;SDS011;8317;52.186;5.688;2022-11-15T13:35:50;3.28;;;1.58;;
16416;SDS011;8317;52.186;5.688;2022-11-15T13:38:25;4.22;;;2.05;;
16416;SDS011;8317;52.186;5.688;2022-11-15T13:40:53;9.50;;;2.60;;
16416;SDS011;8317;52.186;5.688;2022-11-15T13:43:25;5.43;;;2.10;;
16416;SDS011;8317;52.186;5.688;2022-11-15T13:46:04;3.67;;;1.90;;
16416;SDS011;8317;52.186;5.688;2022-11-15T13:48:32;3.17;;;1.90;;
16416;SDS011;8317;52.186;5.688;2022-11-15T13:51:01;6.25;;;2.10;;
16416;SDS011;8317;52.186;5.688;2022-11-15T13:53:30;7.65;;;2.30;;
16416;SDS011;8317;52.186;5.688;2022-11-15T13:55:58;2.05;;;1.80;;
16416;SDS011;8317;52.186;5.688;2022-11-15T13:58:26;4.53;;;1.75;;
16416;SDS011;8317;52.186;5.688;2022-11-15T14:00:58;4.60;;;1.77;;
16416;SDS011;8317;52.186;5.688;2022-11-15T14:03:27;3.03;;;2.30;;
16416;SDS011;8317;52.186;5.688;2022-11-15T14:06:03;5.93;;;1.77;;
16416;SDS011;8317;52.186;5.688;2022-11-15T14:08:32;17.40;;;8.02;;
16416;SDS011;8317;52.186;5.688;2022-11-15T14:11:07;5.55;;;2.97;;
16416;SDS011;8317;52.186;5.688;2022-11-15T14:13:38;4.53;;;1.90;;
16416;SDS011;8317;52.186;5.688;2022-11-15T14:16:18;4.03;;;1.70;;
16416;SDS011;8317;52.186;5.688;2022-11-15T14:18:47;7.35;;;2.40;;
16416;SDS011;8317;52.186;5.688;2022-11-15T14:21:17;10.38;;;2.90;;
16416;SDS011;8317;52.186;5.688;2022-11-15T14:23:45;6.90;;;3.47;;
16416;SDS011;8317;52.186;5.688;2022-11-15T14:26:27;5.57;;;4.10;;
16416;SDS011;8317;52.186;5.688;2022-11-15T14:28:56;4.50;;;1.95;;
16416;SDS011;8317;52.186;5.688;2022-11-15T14:31:23;2.67;;;1.65;;
16416;SDS011;8317;52.186;5.688;2022-11-15T14:33:49;7.88;;;1.58;;
16416;SDS011;8317;52.186;5.688;2022-11-15T14:36:18;4.40;;;1.77;;
16416;SDS011;8317;52.186;5.688;2022-11-15T14:38:46;1.83;;;1.30;;
16416;SDS011;8317;52.186;5.688;2022-11-15T14:41:17;3.55;;;1.70;;
16416;SDS011;8317;52.186;5.688;2022-11-15T14:43:45;12.68;;;4.40;;
16416;SDS011;8317;52.186;5.688;2022-11-15T14:46:12;22.90;;;6.97;;
16416;SDS011;8317;52.186;5.688;2022-11-15T14:48:39;9.05;;;2.67;;
16416;SDS011;8317;52.186;5.688;2022-11-15T14:51:09;2.97;;;2.38;;
16416;SDS011;8317;52.186;5.688;2022-11-15T14:53:40;5.00;;;2.90;;
16416;SDS011;8317;52.186;5.688;2022-11-15T14:56:09;8.57;;;4.43;;
16416;SDS011;8317;52.186;5.688;2022-11-15T14:58:36;18.73;;;5.68;;
16416;SDS011;8317;52.186;5.688;2022-11-15T15:01:05;12.35;;;5.20;;
16416;SDS011;8317;52.186;5.688;2022-11-15T15:03:38;11.25;;;4.00;;
16416;SDS011;8317;52.186;5.688;2022-11-15T15:06:05;4.78;;;1.52;;
16416;SDS011;8317;52.186;5.688;2022-11-15T15:08:34;3.63;;;2.45;;
16416;SDS011;8317;52.186;5.688;2022-11-15T15:11:03;5.43;;;1.50;;
16416;SDS011;8317;52.186;5.688;2022-11-15T15:13:35;4.65;;;2.13;;
16416;SDS011;8317;52.186;5.688;2022-11-15T15:16:02;6.00;;;1.70;;
16416;SDS011;8317;52.186;5.688;2022-11-15T15:18:29;6.15;;;1.95;;
16416;SDS011;8317;52.186;5.688;2022-11-15T15:20:56;2.20;;;1.73;;
16416;SDS011;8317;52.186;5.688;2022-11-15T15:23:27;3.22;;;1.58;;
16416;SDS011;8317;52.186;5.688;2022-11-15T15:25:56;5.13;;;1.65;;
16416;SDS011;8317;52.186;5.688;2022-11-15T15:28:24;3.22;;;2.20;;
16416;SDS011;8317;52.186;5.688;2022-11-15T15:30:51;3.53;;;1.75;;